sensor_id;sensor_type;location;lat;lon;timestamp;P1;durP1;ratioP1;P2;durP2;ratioP2
7289;SDS011;63176;52.678;13.250;2022-09-20T00:01:13;3.50;;;0.77;;
7289;SDS011;63176;52.678;13.250;2022-09-20T00:03:43;1.45;;;0.60;;
7289;SDS011;63176;52.678;13.250;2022-09-20T00:06:11;2.88;;;0.65;;
7289;SDS011;63176;52.678;13.250;2022-09-20T00:08:39;1.80;;;0.90;;
7289;SDS011;63176;52.678;13.250;2022-09-20T00:11:07;1.15;;;0.93;;
7289;SDS011;63176;52.678;13.250;2022-09-20T00:13:35;0.98;;;0.88;;
7289;SDS011;63176;52.678;13.250;2022-09-20T00:16:06;0.50;;;0.50;;
7289;SDS011;63176;52.678;13.250;2022-09-20T00:18:34;0.80;;;0.55;;
7289;SDS011;63176;52.678;13.250;2022-09-20T00:21:01;0.70;;;0.50;;
7289;SDS011;63176;52.678;13.250;2022-09-20T00:23:28;0.70;;;0.70;;
7289;SDS011;63176;52.678;13.250;2022-09-20T00:25:57;0.50;;;0.50;;
7289;SDS011;63176;52.678;13.250;2022-09-20T00:28:25;0.63;;;0.50;;
7289;SDS011;63176;52.678;13.250;2022-09-20T00:30:51;1.67;;;0.63;;
7289;SDS011;63176;52.678;13.250;2022-09-20T00:33:18;3.30;;;0.70;;
7289;SDS011;63176;52.678;13.250;2022-09-20T00:35:45;2.05;;;0.77;;
7289;SDS011;63176;52.678;13.250;2022-09-20T00:38:11;4.77;;;0.63;;
7289;SDS011;63176;52.678;13.250;2022-09-20T00:40:43;1.98;;;0.68;;
7289;SDS011;63176;52.678;13.250;2022-09-20T00:43:12;0.77;;;0.60;;
7289;SDS011;63176;52.678;13.250;2022-09-20T00:45:40;1.95;;;0.95;;
7289;SDS011;63176;52.678;13.250;2022-09-20T00:48:24;1.73;;;0.95;;
7289;SDS011;63176;52.678;13.250;2022-09-20T00:50:58;0.77;;;0.70;;
7289;SDS011;63176;52.678;13.250;2022-09-20T00:53:38;0.75;;;0.75;;
7289;SDS011;63176;52.678;13.250;2022-09-20T00:56:10;1.10;;;0.70;;
7289;SDS011;63176;52.678;13.250;2022-09-20T00:58:45;0.60;;;0.60;;
7289;SDS011;63176;52.678;13.250;2022-09-20T01:01:19;1.08;;;0.50;;
7289;SDS011;63176;52.678;13.250;2022-09-20T01:03:44;1.20;;;0.63;;
7289;SDS011;63176;52.678;13.250;2022-09-20T01:06:12;0.70;;;0.60;;
7289;SDS011;63176;52.678;13.250;2022-09-20T01:08:41;2.58;;;0.75;;
7289;SDS011;63176;52.678;13.250;2022-09-20T01:11:09;0.80;;;0.68;;
7289;SDS011;63176;52.678;13.250;2022-09-20T01:13:35;2.80;;;0.80;;
7289;SDS011;63176;52.678;13.250;2022-09-20T01:16:01;1.80;;;0.80;;
7289;SDS011;63176;52.678;13.250;2022-09-20T01:18:29;0.55;;;0.50;;
7289;SDS011;63176;52.678;13.250;2022-09-20T01:20:57;0.60;;;0.60;;
7289;SDS011;63176;52.678;13.250;2022-09-20T01:28:57;0.60;;;0.52;;
7289;SDS011;63176;52.678;13.250;2022-09-20T01:31:45;0.60;;;0.60;;
7289;SDS011;63176;52.678;13.250;2022-09-20T01:34:17;1.00;;;0.60;;
7289;SDS011;63176;52.678;13.250;2022-09-20T01:36:51;1.00;;;0.65;;
7289;SDS011;63176;52.678;13.250;2022-09-20T01:45:28;0.60;;;0.50;;
7289;SDS011;63176;52.678;13.250;2022-09-20T01:48:04;0.65;;;0.55;;
7289;SDS011;63176;52.678;13.250;2022-09-20T01:50:54;1.20;;;0.77;;
7289;SDS011;63176;52.678;13.250;2022-09-20T01:56:17;0.60;;;0.50;;
7289;SDS011;63176;52.678;13.250;2022-09-20T02:18:08;0.50;;;0.50;;
7289;SDS011;63176;52.678;13.250;2022-09-20T02:23:44;1.10;;;0.57;;
7289;SDS011;63176;52.678;13.250;2022-09-20T02:32:05;0.70;;;0.65;;
7289;SDS011;63176;52.678;13.250;2022-09-20T02:34:45;3.90;;;0.68;;
7289;SDS011;63176;52.678;13.250;2022-09-20T02:45:45;0.50;;;0.50;;
7289;SDS011;63176;52.678;13.250;2022-09-20T02:48:13;0.68;;;0.65;;
7289;SDS011;63176;52.678;13.250;2022-09-20T02:55:56;0.88;;;0.88;;
7289;SDS011;63176;52.678;13.250;2022-09-20T03:07:43;4.32;;;0.93;;
7289;SDS011;63176;52.678;13.250;2022-09-20T03:09:57;1.38;;;0.80;;
7289;SDS011;63176;52.678;13.250;2022-09-20T03:24:32;6.65;;;2.83;;
7289;SDS011;63176;52.678;13.250;2022-09-20T03:32:39;3.83;;;1.85;;
7289;SDS011;63176;52.678;13.250;2022-09-20T03:35:28;2.42;;;1.70;;
7289;SDS011;63176;52.678;13.250;2022-09-20T03:41:01;3.22;;;1.70;;
7289;SDS011;63176;52.678;13.250;2022-09-20T03:44:00;1.70;;;1.10;;
7289;SDS011;63176;52.678;13.250;2022-09-20T03:46:45;2.65;;;1.42;;
7289;SDS011;63176;52.678;13.250;2022-09-20T03:49:30;1.20;;;0.90;;
7289;SDS011;63176;52.678;13.250;2022-09-20T04:03:22;5.95;;;2.45;;
7289;SDS011;63176;52.678;13.250;2022-09-20T04:06:00;7.85;;;3.10;;
7289;SDS011;63176;52.678;13.250;2022-09-20T04:11:52;6.07;;;2.17;;
7289;SDS011;63176;52.678;13.250;2022-09-20T04:20:01;1.70;;;1.13;;
7289;SDS011;63176;52.678;13.250;2022-09-20T04:22:36;1.20;;;1.10;;
7289;SDS011;63176;52.678;13.250;2022-09-20T04:25:08;2.28;;;1.50;;
7289;SDS011;63176;52.678;13.250;2022-09-20T04:27:48;1.05;;;0.95;;
7289;SDS011;63176;52.678;13.250;2022-09-20T04:30:17;3.10;;;1.00;;
7289;SDS011;63176;52.678;13.250;2022-09-20T04:38:32;2.05;;;0.80;;
7289;SDS011;63176;52.678;13.250;2022-09-20T04:55:37;1.27;;;0.80;;
7289;SDS011;63176;52.678;13.250;2022-09-20T05:09:08;0.55;;;0.55;;
7289;SDS011;63176;52.678;13.250;2022-09-20T05:11:59;0.80;;;0.80;;
7289;SDS011;63176;52.678;13.250;2022-09-20T05:33:17;0.88;;;0.88;;
7289;SDS011;63176;52.678;13.250;2022-09-20T05:35:55;1.00;;;0.80;;
7289;SDS011;63176;52.678;13.250;2022-09-20T05:46:32;0.90;;;0.90;;
7289;SDS011;63176;52.678;13.250;2022-09-20T05:55:10;0.70;;;0.70;;
7289;SDS011;63176;52.678;13.250;2022-09-20T06:00:37;5.88;;;0.85;;
7289;SDS011;63176;52.678;13.250;2022-09-20T06:03:19;1.40;;;0.70;;
7289;SDS011;63176;52.678;13.250;2022-09-20T06:05:57;2.40;;;0.80;;
7289;SDS011;63176;52.678;13.250;2022-09-20T06:16:11;0.70;;;0.68;;
7289;SDS011;63176;52.678;13.250;2022-09-20T06:18:49;1.10;;;0.82;;
7289;SDS011;63176;52.678;13.250;2022-09-20T06:24:23;0.80;;;0.75;;
7289;SDS011;63176;52.678;13.250;2022-09-20T06:27:00;1.05;;;0.77;;
7289;SDS011;63176;52.678;13.250;2022-09-20T06:29:49;2.55;;;0.70;;
7289;SDS011;63176;52.678;13.250;2022-09-20T06:32:18;1.42;;;0.90;;
7289;SDS011;63176;52.678;13.250;2022-09-20T06:34:44;6.53;;;1.23;;
7289;SDS011;63176;52.678;13.250;2022-09-20T06:40:17;1.85;;;1.48;;
7289;SDS011;63176;52.678;13.250;2022-09-20T06:43:09;10.88;;;6.00;;
7289;SDS011;63176;52.678;13.250;2022-09-20T06:45:38;12.63;;;4.88;;
7289;SDS011;63176;52.678;13.250;2022-09-20T06:48:07;13.10;;;6.78;;
7289;SDS011;63176;52.678;13.250;2022-09-20T06:50:37;4.28;;;2.25;;
7289;SDS011;63176;52.678;13.250;2022-09-20T06:53:11;1.13;;;1.05;;
7289;SDS011;63176;52.678;13.250;2022-09-20T06:55:41;1.92;;;1.20;;
7289;SDS011;63176;52.678;13.250;2022-09-20T06:58:08;1.85;;;1.20;;
7289;SDS011;63176;52.678;13.250;2022-09-20T07:00:35;2.05;;;1.27;;
7289;SDS011;63176;52.678;13.250;2022-09-20T07:03:01;0.90;;;0.90;;
7289;SDS011;63176;52.678;13.250;2022-09-20T07:05:26;1.97;;;0.90;;
7289;SDS011;63176;52.678;13.250;2022-09-20T07:07:58;3.47;;;1.00;;
7289;SDS011;63176;52.678;13.250;2022-09-20T07:10:25;0.80;;;0.80;;
7289;SDS011;63176;52.678;13.250;2022-09-20T07:12:58;0.80;;;0.80;;
7289;SDS011;63176;52.678;13.250;2022-09-20T07:15:30;2.15;;;1.00;;
7289;SDS011;63176;52.678;13.250;2022-09-20T07:17:56;1.23;;;0.98;;
7289;SDS011;63176;52.678;13.250;2022-09-20T07:20:23;1.48;;;1.02;;
7289;SDS011;63176;52.678;13.250;2022-09-20T07:22:49;0.97;;;0.73;;
7289;SDS011;63176;52.678;13.250;2022-09-20T07:25:15;1.00;;;0.73;;
7289;SDS011;63176;52.678;13.250;2022-09-20T07:27:42;1.35;;;0.90;;
7289;SDS011;63176;52.678;13.250;2022-09-20T07:30:10;1.10;;;0.95;;
7289;SDS011;63176;52.678;13.250;2022-09-20T07:32:36;0.98;;;0.90;;
7289;SDS011;63176;52.678;13.250;2022-09-20T07:35:02;1.35;;;0.98;;
7289;SDS011;63176;52.678;13.250;2022-09-20T07:37:28;5.72;;;1.00;;
7289;SDS011;63176;52.678;13.250;2022-09-20T07:39:54;5.00;;;1.10;;
7289;SDS011;63176;52.678;13.250;2022-09-20T07:42:19;1.07;;;0.87;;
7289;SDS011;63176;52.678;13.250;2022-09-20T07:44:45;1.00;;;0.70;;
7289;SDS011;63176;52.678;13.250;2022-09-20T07:47:11;0.95;;;0.85;;
7289;SDS011;63176;52.678;13.250;2022-09-20T07:49:39;0.80;;;0.80;;
7289;SDS011;63176;52.678;13.250;2022-09-20T07:52:04;1.30;;;0.77;;
7289;SDS011;63176;52.678;13.250;2022-09-20T07:54:31;4.78;;;0.95;;
7289;SDS011;63176;52.678;13.250;2022-09-20T07:56:57;0.83;;;0.63;;
7289;SDS011;63176;52.678;13.250;2022-09-20T07:59:23;1.37;;;0.90;;
7289;SDS011;63176;52.678;13.250;2022-09-20T08:01:49;1.40;;;0.60;;
7289;SDS011;63176;52.678;13.250;2022-09-20T08:04:15;0.67;;;0.67;;
7289;SDS011;63176;52.678;13.250;2022-09-20T08:06:42;1.23;;;0.90;;
7289;SDS011;63176;52.678;13.250;2022-09-20T08:09:09;1.77;;;0.88;;
7289;SDS011;63176;52.678;13.250;2022-09-20T08:11:36;0.93;;;0.93;;
7289;SDS011;63176;52.678;13.250;2022-09-20T08:14:03;3.53;;;0.90;;
7289;SDS011;63176;52.678;13.250;2022-09-20T08:16:29;1.08;;;0.75;;
7289;SDS011;63176;52.678;13.250;2022-09-20T08:18:57;1.08;;;0.60;;
7289;SDS011;63176;52.678;13.250;2022-09-20T08:21:25;1.10;;;0.95;;
7289;SDS011;63176;52.678;13.250;2022-09-20T08:23:55;2.55;;;0.90;;
7289;SDS011;63176;52.678;13.250;2022-09-20T08:26:22;0.75;;;0.75;;
7289;SDS011;63176;52.678;13.250;2022-09-20T08:28:55;1.00;;;0.70;;
7289;SDS011;63176;52.678;13.250;2022-09-20T08:31:24;0.90;;;0.60;;
7289;SDS011;63176;52.678;13.250;2022-09-20T08:33:51;1.23;;;0.70;;
7289;SDS011;63176;52.678;13.250;2022-09-20T08:36:19;2.20;;;0.80;;
7289;SDS011;63176;52.678;13.250;2022-09-20T08:38:46;1.77;;;0.97;;
7289;SDS011;63176;52.678;13.250;2022-09-20T08:46:41;1.30;;;0.80;;
7289;SDS011;63176;52.678;13.250;2022-09-20T08:49:11;1.00;;;0.87;;
7289;SDS011;63176;52.678;13.250;2022-09-20T08:51:47;0.87;;;0.80;;
7289;SDS011;63176;52.678;13.250;2022-09-20T08:54:14;1.93;;;1.10;;
7289;SDS011;63176;52.678;13.250;2022-09-20T08:56:41;1.20;;;1.00;;
7289;SDS011;63176;52.678;13.250;2022-09-20T08:59:16;1.53;;;1.10;;
7289;SDS011;63176;52.678;13.250;2022-09-20T09:01:44;0.67;;;0.63;;
7289;SDS011;63176;52.678;13.250;2022-09-20T09:06:43;0.77;;;0.73;;
7289;SDS011;63176;52.678;13.250;2022-09-20T09:09:27;2.50;;;1.00;;
7289;SDS011;63176;52.678;13.250;2022-09-20T09:11:55;1.73;;;0.80;;
7289;SDS011;63176;52.678;13.250;2022-09-20T09:17:12;1.47;;;0.83;;
7289;SDS011;63176;52.678;13.250;2022-09-20T09:19:49;2.73;;;1.00;;
7289;SDS011;63176;52.678;13.250;2022-09-20T09:22:21;3.10;;;0.60;;
7289;SDS011;63176;52.678;13.250;2022-09-20T09:27:34;1.17;;;0.60;;
7289;SDS011;63176;52.678;13.250;2022-09-20T09:30:22;2.90;;;1.07;;
7289;SDS011;63176;52.678;13.250;2022-09-20T09:32:51;6.30;;;0.97;;
7289;SDS011;63176;52.678;13.250;2022-09-20T09:35:30;1.53;;;0.90;;
7289;SDS011;63176;52.678;13.250;2022-09-20T09:38:00;1.57;;;1.00;;
7289;SDS011;63176;52.678;13.250;2022-09-20T09:40:29;3.17;;;1.47;;
7289;SDS011;63176;52.678;13.250;2022-09-20T09:43:00;2.63;;;1.20;;
7289;SDS011;63176;52.678;13.250;2022-09-20T09:47:55;1.20;;;0.90;;
7289;SDS011;63176;52.678;13.250;2022-09-20T09:50:24;7.40;;;2.23;;
7289;SDS011;63176;52.678;13.250;2022-09-20T09:53:11;1.17;;;1.07;;
7289;SDS011;63176;52.678;13.250;2022-09-20T10:01:18;5.87;;;1.10;;
7289;SDS011;63176;52.678;13.250;2022-09-20T10:04:37;2.10;;;1.10;;
7289;SDS011;63176;52.678;13.250;2022-09-20T10:06:52;0.90;;;0.80;;
7289;SDS011;63176;52.678;13.250;2022-09-20T10:09:48;1.33;;;0.90;;
7289;SDS011;63176;52.678;13.250;2022-09-20T10:26:21;1.23;;;0.93;;
7289;SDS011;63176;52.678;13.250;2022-09-20T10:28:55;1.47;;;0.70;;
7289;SDS011;63176;52.678;13.250;2022-09-20T11:02:45;1.80;;;0.80;;
7289;SDS011;63176;52.678;13.250;2022-09-20T11:05:32;1.00;;;0.90;;
7289;SDS011;63176;52.678;13.250;2022-09-20T11:11:00;0.70;;;0.70;;
7289;SDS011;63176;52.678;13.250;2022-09-20T11:19:07;0.93;;;0.88;;
7289;SDS011;63176;52.678;13.250;2022-09-20T11:22:16;1.67;;;0.90;;
7289;SDS011;63176;52.678;13.250;2022-09-20T11:24:46;1.95;;;1.13;;
7289;SDS011;63176;52.678;13.250;2022-09-20T11:30:28;1.60;;;1.20;;
7289;SDS011;63176;52.678;13.250;2022-09-20T11:33:13;2.70;;;1.80;;
7289;SDS011;63176;52.678;13.250;2022-09-20T11:35:49;6.40;;;2.13;;
7289;SDS011;63176;52.678;13.250;2022-09-20T11:38:21;3.53;;;1.70;;
7289;SDS011;63176;52.678;13.250;2022-09-20T11:40:59;2.15;;;1.63;;
7289;SDS011;63176;52.678;13.250;2022-09-20T11:43:26;1.70;;;1.60;;
7289;SDS011;63176;52.678;13.250;2022-09-20T11:45:55;4.53;;;1.60;;
7289;SDS011;63176;52.678;13.250;2022-09-20T11:48:28;4.13;;;1.30;;
7289;SDS011;63176;52.678;13.250;2022-09-20T11:57:00;2.73;;;1.23;;
7289;SDS011;63176;52.678;13.250;2022-09-20T11:59:36;3.17;;;1.33;;
7289;SDS011;63176;52.678;13.250;2022-09-20T12:05:05;2.90;;;1.70;;
7289;SDS011;63176;52.678;13.250;2022-09-20T12:07:47;1.98;;;1.30;;
7289;SDS011;63176;52.678;13.250;2022-09-20T12:10:22;1.40;;;1.23;;
7289;SDS011;63176;52.678;13.250;2022-09-20T12:13:33;1.73;;;1.37;;
7289;SDS011;63176;52.678;13.250;2022-09-20T12:16:00;1.43;;;1.30;;
7289;SDS011;63176;52.678;13.250;2022-09-20T12:21:14;1.27;;;1.08;;
7289;SDS011;63176;52.678;13.250;2022-09-20T12:23:43;2.35;;;1.13;;
7289;SDS011;63176;52.678;13.250;2022-09-20T12:28:40;2.17;;;1.10;;
7289;SDS011;63176;52.678;13.250;2022-09-20T12:33:57;1.80;;;1.07;;
7289;SDS011;63176;52.678;13.250;2022-09-20T12:36:23;2.97;;;0.70;;
7289;SDS011;63176;52.678;13.250;2022-09-20T12:39:02;2.63;;;0.60;;
7289;SDS011;63176;52.678;13.250;2022-09-20T12:46:55;3.03;;;0.60;;
7289;SDS011;63176;52.678;13.250;2022-09-20T12:52:50;0.40;;;0.40;;
7289;SDS011;63176;52.678;13.250;2022-09-20T12:57:54;0.93;;;0.70;;
7289;SDS011;63176;52.678;13.250;2022-09-20T13:00:48;1.40;;;0.50;;
7289;SDS011;63176;52.678;13.250;2022-09-20T13:03:39;2.65;;;0.55;;
7289;SDS011;63176;52.678;13.250;2022-09-20T13:08:31;0.87;;;0.50;;
7289;SDS011;63176;52.678;13.250;2022-09-20T13:11:07;0.80;;;0.70;;
7289;SDS011;63176;52.678;13.250;2022-09-20T13:19:02;0.60;;;0.40;;
7289;SDS011;63176;52.678;13.250;2022-09-20T13:21:39;1.55;;;0.60;;
7289;SDS011;63176;52.678;13.250;2022-09-20T13:24:11;0.40;;;0.40;;
7289;SDS011;63176;52.678;13.250;2022-09-20T13:26:43;1.13;;;0.55;;
7289;SDS011;63176;52.678;13.250;2022-09-20T13:29:18;0.65;;;0.55;;
7289;SDS011;63176;52.678;13.250;2022-09-20T13:34:44;0.70;;;0.52;;
7289;SDS011;63176;52.678;13.250;2022-09-20T13:37:17;2.10;;;0.60;;
7289;SDS011;63176;52.678;13.250;2022-09-20T13:39:45;1.63;;;0.40;;
7289;SDS011;63176;52.678;13.250;2022-09-20T13:42:13;0.80;;;0.50;;
7289;SDS011;63176;52.678;13.250;2022-09-20T13:44:43;0.70;;;0.40;;
7289;SDS011;63176;52.678;13.250;2022-09-20T13:49:51;0.50;;;0.40;;
7289;SDS011;63176;52.678;13.250;2022-09-20T13:52:27;1.02;;;0.50;;
7289;SDS011;63176;52.678;13.250;2022-09-20T13:54:54;0.43;;;0.40;;
7289;SDS011;63176;52.678;13.250;2022-09-20T13:57:21;1.23;;;0.43;;
7289;SDS011;63176;52.678;13.250;2022-09-20T13:59:49;0.40;;;0.30;;
7289;SDS011;63176;52.678;13.250;2022-09-20T14:02:25;0.40;;;0.30;;
7289;SDS011;63176;52.678;13.250;2022-09-20T14:04:54;0.40;;;0.38;;
7289;SDS011;63176;52.678;13.250;2022-09-20T14:07:22;1.30;;;0.40;;
7289;SDS011;63176;52.678;13.250;2022-09-20T14:09:52;0.57;;;0.40;;
7289;SDS011;63176;52.678;13.250;2022-09-20T14:12:19;0.40;;;0.30;;
7289;SDS011;63176;52.678;13.250;2022-09-20T14:14:46;0.70;;;0.40;;
7289;SDS011;63176;52.678;13.250;2022-09-20T14:17:14;0.47;;;0.47;;
7289;SDS011;63176;52.678;13.250;2022-09-20T14:19:44;2.00;;;0.40;;
7289;SDS011;63176;52.678;13.250;2022-09-20T14:22:22;1.07;;;0.33;;
7289;SDS011;63176;52.678;13.250;2022-09-20T14:25:16;0.40;;;0.33;;
7289;SDS011;63176;52.678;13.250;2022-09-20T14:27:44;0.60;;;0.40;;
7289;SDS011;63176;52.678;13.250;2022-09-20T14:30:27;0.40;;;0.30;;
7289;SDS011;63176;52.678;13.250;2022-09-20T14:32:59;0.40;;;0.30;;
7289;SDS011;63176;52.678;13.250;2022-09-20T14:35:25;0.40;;;0.40;;
7289;SDS011;63176;52.678;13.250;2022-09-20T14:37:52;3.90;;;0.40;;
7289;SDS011;63176;52.678;13.250;2022-09-20T14:40:31;8.13;;;0.50;;
7289;SDS011;63176;52.678;13.250;2022-09-20T14:43:04;0.63;;;0.40;;
7289;SDS011;63176;52.678;13.250;2022-09-20T14:45:32;0.80;;;0.40;;
7289;SDS011;63176;52.678;13.250;2022-09-20T14:50:31;0.63;;;0.40;;
7289;SDS011;63176;52.678;13.250;2022-09-20T14:55:37;1.73;;;0.60;;
7289;SDS011;63176;52.678;13.250;2022-09-20T14:58:12;0.40;;;0.40;;
7289;SDS011;63176;52.678;13.250;2022-09-20T15:00:46;0.40;;;0.30;;
7289;SDS011;63176;52.678;13.250;2022-09-20T15:03:38;0.60;;;0.40;;
7289;SDS011;63176;52.678;13.250;2022-09-20T15:06:11;0.57;;;0.40;;
7289;SDS011;63176;52.678;13.250;2022-09-20T15:08:37;1.93;;;0.33;;
7289;SDS011;63176;52.678;13.250;2022-09-20T15:11:04;0.70;;;0.40;;
7289;SDS011;63176;52.678;13.250;2022-09-20T15:13:31;2.93;;;0.40;;
7289;SDS011;63176;52.678;13.250;2022-09-20T15:15:56;0.97;;;0.40;;
7289;SDS011;63176;52.678;13.250;2022-09-20T15:18:27;2.97;;;0.40;;
7289;SDS011;63176;52.678;13.250;2022-09-20T15:20:56;0.60;;;0.40;;
7289;SDS011;63176;52.678;13.250;2022-09-20T15:23:21;0.40;;;0.30;;
7289;SDS011;63176;52.678;13.250;2022-09-20T15:25:50;0.50;;;0.40;;
7289;SDS011;63176;52.678;13.250;2022-09-20T15:28:18;1.00;;;0.60;;
7289;SDS011;63176;52.678;13.250;2022-09-20T15:30:44;0.50;;;0.40;;
7289;SDS011;63176;52.678;13.250;2022-09-20T15:33:11;1.70;;;1.27;;
7289;SDS011;63176;52.678;13.250;2022-09-20T15:35:38;3.77;;;2.30;;
7289;SDS011;63176;52.678;13.250;2022-09-20T15:38:05;3.00;;;1.60;;
7289;SDS011;63176;52.678;13.250;2022-09-20T15:40:33;2.00;;;1.20;;
7289;SDS011;63176;52.678;13.250;2022-09-20T15:42:59;1.33;;;0.90;;
7289;SDS011;63176;52.678;13.250;2022-09-20T15:45:25;3.83;;;1.27;;
7289;SDS011;63176;52.678;13.250;2022-09-20T15:47:52;1.90;;;1.37;;
7289;SDS011;63176;52.678;13.250;2022-09-20T15:50:21;0.70;;;0.70;;
7289;SDS011;63176;52.678;13.250;2022-09-20T15:52:48;1.13;;;0.97;;
7289;SDS011;63176;52.678;13.250;2022-09-20T15:55:15;0.83;;;0.77;;
7289;SDS011;63176;52.678;13.250;2022-09-20T15:57:45;0.55;;;0.50;;
7289;SDS011;63176;52.678;13.250;2022-09-20T16:00:13;0.80;;;0.60;;
7289;SDS011;63176;52.678;13.250;2022-09-20T16:02:42;0.50;;;0.50;;
7289;SDS011;63176;52.678;13.250;2022-09-20T16:05:08;0.50;;;0.50;;
7289;SDS011;63176;52.678;13.250;2022-09-20T16:07:35;1.13;;;0.50;;
7289;SDS011;63176;52.678;13.250;2022-09-20T16:10:01;0.63;;;0.63;;
7289;SDS011;63176;52.678;13.250;2022-09-20T16:12:27;0.50;;;0.47;;
7289;SDS011;63176;52.678;13.250;2022-09-20T16:14:52;0.70;;;0.60;;
7289;SDS011;63176;52.678;13.250;2022-09-20T16:17:18;0.50;;;0.50;;
7289;SDS011;63176;52.678;13.250;2022-09-20T16:20:04;0.77;;;0.63;;
7289;SDS011;63176;52.678;13.250;2022-09-20T16:22:30;1.83;;;1.20;;
7289;SDS011;63176;52.678;13.250;2022-09-20T16:24:58;0.50;;;0.50;;
7289;SDS011;63176;52.678;13.250;2022-09-20T16:27:25;0.70;;;0.52;;
7289;SDS011;63176;52.678;13.250;2022-09-20T16:29:51;1.58;;;0.70;;
7289;SDS011;63176;52.678;13.250;2022-09-20T16:32:17;0.60;;;0.50;;
7289;SDS011;63176;52.678;13.250;2022-09-20T16:34:43;0.90;;;0.60;;
7289;SDS011;63176;52.678;13.250;2022-09-20T16:37:10;1.13;;;0.50;;
7289;SDS011;63176;52.678;13.250;2022-09-20T16:39:40;0.70;;;0.70;;
7289;SDS011;63176;52.678;13.250;2022-09-20T16:42:06;0.70;;;0.70;;
7289;SDS011;63176;52.678;13.250;2022-09-20T16:44:35;1.20;;;1.00;;
7289;SDS011;63176;52.678;13.250;2022-09-20T16:47:02;1.08;;;0.77;;
7289;SDS011;63176;52.678;13.250;2022-09-20T16:49:31;0.70;;;0.70;;
7289;SDS011;63176;52.678;13.250;2022-09-20T16:51:57;2.53;;;0.60;;
7289;SDS011;63176;52.678;13.250;2022-09-20T16:54:22;0.90;;;0.70;;
7289;SDS011;63176;52.678;13.250;2022-09-20T16:56:48;1.60;;;0.87;;
7289;SDS011;63176;52.678;13.250;2022-09-20T16:59:15;1.33;;;0.93;;
7289;SDS011;63176;52.678;13.250;2022-09-20T17:01:43;0.80;;;0.80;;
7289;SDS011;63176;52.678;13.250;2022-09-20T17:04:09;0.93;;;0.80;;
7289;SDS011;63176;52.678;13.250;2022-09-20T17:06:38;3.35;;;1.90;;
7289;SDS011;63176;52.678;13.250;2022-09-20T17:09:04;2.22;;;1.63;;
7289;SDS011;63176;52.678;13.250;2022-09-20T17:11:32;2.40;;;2.20;;
7289;SDS011;63176;52.678;13.250;2022-09-20T17:14:00;5.50;;;2.75;;
7289;SDS011;63176;52.678;13.250;2022-09-20T17:16:27;1.80;;;1.70;;
7289;SDS011;63176;52.678;13.250;2022-09-20T17:18:59;1.50;;;1.40;;
7289;SDS011;63176;52.678;13.250;2022-09-20T17:21:26;2.03;;;1.10;;
7289;SDS011;63176;52.678;13.250;2022-09-20T17:23:54;1.60;;;1.30;;
7289;SDS011;63176;52.678;13.250;2022-09-20T17:28:49;1.55;;;1.45;;
7289;SDS011;63176;52.678;13.250;2022-09-20T17:31:18;1.35;;;1.25;;
7289;SDS011;63176;52.678;13.250;2022-09-20T17:33:48;2.47;;;1.75;;
7289;SDS011;63176;52.678;13.250;2022-09-20T17:36:15;2.63;;;1.95;;
7289;SDS011;63176;52.678;13.250;2022-09-20T17:38:44;2.13;;;1.52;;
7289;SDS011;63176;52.678;13.250;2022-09-20T17:41:13;1.30;;;1.20;;
7289;SDS011;63176;52.678;13.250;2022-09-20T17:43:40;2.85;;;2.10;;
7289;SDS011;63176;52.678;13.250;2022-09-20T17:46:10;2.15;;;2.03;;
7289;SDS011;63176;52.678;13.250;2022-09-20T17:48:50;2.40;;;2.15;;
7289;SDS011;63176;52.678;13.250;2022-09-20T17:51:18;3.17;;;2.70;;
7289;SDS011;63176;52.678;13.250;2022-09-20T17:53:45;4.25;;;2.90;;
7289;SDS011;63176;52.678;13.250;2022-09-20T17:56:11;3.47;;;3.00;;
7289;SDS011;63176;52.678;13.250;2022-09-20T17:58:38;5.82;;;3.10;;
7289;SDS011;63176;52.678;13.250;2022-09-20T18:01:11;3.10;;;2.28;;
7289;SDS011;63176;52.678;13.250;2022-09-20T18:03:39;2.88;;;2.47;;
7289;SDS011;63176;52.678;13.250;2022-09-20T18:06:23;3.97;;;2.30;;
7289;SDS011;63176;52.678;13.250;2022-09-20T18:08:54;2.45;;;2.22;;
7289;SDS011;63176;52.678;13.250;2022-09-20T18:11:32;5.95;;;2.83;;
7289;SDS011;63176;52.678;13.250;2022-09-20T18:13:59;2.58;;;2.15;;
7289;SDS011;63176;52.678;13.250;2022-09-20T18:16:25;2.88;;;2.58;;
7289;SDS011;63176;52.678;13.250;2022-09-20T18:18:51;4.60;;;3.03;;
7289;SDS011;63176;52.678;13.250;2022-09-20T18:21:18;8.77;;;3.97;;
7289;SDS011;63176;52.678;13.250;2022-09-20T18:23:45;8.98;;;6.00;;
7289;SDS011;63176;52.678;13.250;2022-09-20T18:26:13;6.07;;;4.63;;
7289;SDS011;63176;52.678;13.250;2022-09-20T18:28:46;7.35;;;5.00;;
7289;SDS011;63176;52.678;13.250;2022-09-20T18:31:18;5.43;;;4.25;;
7289;SDS011;63176;52.678;13.250;2022-09-20T18:33:44;6.00;;;4.20;;
7289;SDS011;63176;52.678;13.250;2022-09-20T18:36:10;5.63;;;4.40;;
7289;SDS011;63176;52.678;13.250;2022-09-20T18:38:36;6.30;;;4.90;;
7289;SDS011;63176;52.678;13.250;2022-09-20T18:41:01;4.90;;;4.27;;
7289;SDS011;63176;52.678;13.250;2022-09-20T18:43:30;7.50;;;5.50;;
7289;SDS011;63176;52.678;13.250;2022-09-20T18:45:57;8.18;;;5.32;;
7289;SDS011;63176;52.678;13.250;2022-09-20T18:48:24;6.05;;;4.50;;
7289;SDS011;63176;52.678;13.250;2022-09-20T18:51:00;7.90;;;4.60;;
7289;SDS011;63176;52.678;13.250;2022-09-20T18:53:27;4.30;;;3.90;;
7289;SDS011;63176;52.678;13.250;2022-09-20T18:55:55;5.45;;;4.40;;
7289;SDS011;63176;52.678;13.250;2022-09-20T18:58:29;5.40;;;4.20;;
7289;SDS011;63176;52.678;13.250;2022-09-20T19:01:02;5.90;;;3.37;;
7289;SDS011;63176;52.678;13.250;2022-09-20T19:06:42;5.78;;;3.30;;
7289;SDS011;63176;52.678;13.250;2022-09-20T19:12:03;3.17;;;2.80;;
7289;SDS011;63176;52.678;13.250;2022-09-20T19:17:09;4.53;;;3.30;;
7289;SDS011;63176;52.678;13.250;2022-09-20T19:19:40;5.95;;;4.20;;
7289;SDS011;63176;52.678;13.250;2022-09-20T19:27:56;5.28;;;4.15;;
7289;SDS011;63176;52.678;13.250;2022-09-20T19:30:22;6.80;;;4.63;;
7289;SDS011;63176;52.678;13.250;2022-09-20T19:32:48;4.70;;;3.80;;
7289;SDS011;63176;52.678;13.250;2022-09-20T19:35:18;5.57;;;4.70;;
7289;SDS011;63176;52.678;13.250;2022-09-20T19:40:41;7.22;;;4.20;;
7289;SDS011;63176;52.678;13.250;2022-09-20T19:43:28;6.28;;;4.32;;
7289;SDS011;63176;52.678;13.250;2022-09-20T19:46:21;9.82;;;5.47;;
7289;SDS011;63176;52.678;13.250;2022-09-20T19:49:22;6.28;;;4.82;;
7289;SDS011;63176;52.678;13.250;2022-09-20T19:51:56;16.85;;;6.35;;
7289;SDS011;63176;52.678;13.250;2022-09-20T19:54:22;11.10;;;6.00;;
7289;SDS011;63176;52.678;13.250;2022-09-20T19:56:57;18.63;;;6.38;;
7289;SDS011;63176;52.678;13.250;2022-09-20T19:59:24;10.38;;;5.30;;
7289;SDS011;63176;52.678;13.250;2022-09-20T20:01:51;11.18;;;5.65;;
7289;SDS011;63176;52.678;13.250;2022-09-20T20:04:18;13.23;;;6.10;;
7289;SDS011;63176;52.678;13.250;2022-09-20T20:09:29;7.15;;;5.35;;
7289;SDS011;63176;52.678;13.250;2022-09-20T20:28:45;12.82;;;6.50;;
7289;SDS011;63176;52.678;13.250;2022-09-20T20:31:11;7.63;;;5.17;;
7289;SDS011;63176;52.678;13.250;2022-09-20T20:33:37;7.22;;;5.32;;
7289;SDS011;63176;52.678;13.250;2022-09-20T20:36:03;12.43;;;6.73;;
7289;SDS011;63176;52.678;13.250;2022-09-20T20:38:38;10.20;;;5.63;;
7289;SDS011;63176;52.678;13.250;2022-09-20T20:41:12;10.75;;;6.50;;
7289;SDS011;63176;52.678;13.250;2022-09-20T20:43:40;10.40;;;6.32;;
7289;SDS011;63176;52.678;13.250;2022-09-20T20:46:07;17.13;;;6.75;;
7289;SDS011;63176;52.678;13.250;2022-09-20T20:48:35;13.30;;;7.68;;
7289;SDS011;63176;52.678;13.250;2022-09-20T20:53:30;9.63;;;7.68;;
7289;SDS011;63176;52.678;13.250;2022-09-20T20:56:00;9.05;;;5.72;;
7289;SDS011;63176;52.678;13.250;2022-09-20T20:58:31;8.25;;;6.53;;
7289;SDS011;63176;52.678;13.250;2022-09-20T21:01:04;11.05;;;6.80;;
7289;SDS011;63176;52.678;13.250;2022-09-20T21:03:34;12.75;;;7.95;;
7289;SDS011;63176;52.678;13.250;2022-09-20T21:06:00;12.20;;;7.23;;